This is the latest recevied weather packets stored in our database for station/object EA1FBN. If no packets are shown the sender has not sent any weather packets the latest 1 day(s).
| Time | Temp. | Humidity | Pressure | Rain* | Wind** | Luminosity | Snow |
|---|---|---|---|---|---|---|---|
| 1778002809 | 10° C | 71% | 1015 hPa | 0 mm | 1.79 m/s, 236° | - | - |
| 1778002509 | 10° C | 71% | 1014.9 hPa | 0 mm | 2.24 m/s, 244° | - | - |
| 1778002209 | 10° C | 71% | 1014.9 hPa | 0 mm | 3.13 m/s, 239° | - | - |
| 1778001909 | 10° C | 71% | 1014.8 hPa | 0 mm | 3.58 m/s, 221° | - | - |
| 1778001609 | 10.56° C | 71% | 1014.8 hPa | 0 mm | 3.58 m/s, 241° | - | - |
| 1778001309 | 10.56° C | 71% | 1014.8 hPa | 0 mm | 4.02 m/s, 246° | - | - |
| 1778001009 | 10.56° C | 70% | 1014.8 hPa | 0 mm | 3.58 m/s, 263° | - | - |
| 1778000709 | 11.11° C | 71% | 1014.8 hPa | 0 mm | 3.13 m/s, 208° | - | - |
| 1778000409 | 11.11° C | 69% | 1014.7 hPa | 0 mm | 3.58 m/s, 241° | - | - |
| 1778000109 | 11.67° C | 65% | 1014.7 hPa | 0 mm | 3.13 m/s, 243° | - | - |
| 1777999809 | 12.22° C | 62% | 1014.7 hPa | 0 mm | 2.24 m/s, 240° | - | - |
| 1777999509 | 12.22° C | 63% | 1014.7 hPa | 0 mm | 2.68 m/s, 176° | - | - |
| 1777999209 | 12.22° C | 61% | 1014.5 hPa | 0 mm | 2.68 m/s, 240° | - | - |
| 1777998909 | 12.22° C | 63% | 1014.5 hPa | 0 mm | 2.24 m/s, 198° | - | - |
| 1777998609 | 12.22° C | 64% | 1014.5 hPa | 0 mm | 1.79 m/s, 215° | - | - |
| 1777998309 | 12.22° C | 69% | 1014.5 hPa | 0 mm | 2.24 m/s, 244° | - | - |
| 1777998009 | 11.67° C | 68% | 1014.5 hPa | 0 mm | 2.68 m/s, 179° | - | - |
| 1777997709 | 11.67° C | 68% | 1014.5 hPa | 0 mm | 3.13 m/s, 237° | - | - |
| 1777997409 | 11.11° C | 68% | 1014.6 hPa | 0 mm | 3.58 m/s, 210° | - | - |
| 1777997109 | 11.11° C | 67% | 1014.5 hPa | 0 mm | 4.02 m/s, 212° | - | - |
| 1777996809 | 11.11° C | 70% | 1014.4 hPa | 0 mm | 4.02 m/s, 158° | - | - |
| 1777996509 | 11.67° C | 68% | 1014.4 hPa | 0 mm | 3.58 m/s, 180° | - | - |
| 1777996209 | 11.67° C | 64% | 1014.4 hPa | 0 mm | 4.47 m/s, 170° | - | - |
| 1777995909 | 12.78° C | 60% | 1014.3 hPa | 0 mm | 4.47 m/s, 146° | - | - |
| 1777995609 | 13.33° C | 56% | 1014.2 hPa | 0 mm | 4.47 m/s, 134° | - | - |
* Rain latest hour (hover to see other rain measurements)
** Current wind speed in m/s (hover to see current wind gust speed)